Time;durP1;ratioP1;P1;durP2;ratioP2;P2;SDS_P1;SDS_P2;PMS_P1;PMS_P2;Temp;Humidity;BMP_temperature;BMP_pressure;BME280_temperature;BME280_humidity;BME280_pressure;Samples;Min_cycle;Max_cycle;Signal;HPM_P1;HPM_P2
2022/09/03 00:00:56;;;;;;;;;;;;;;;21.89;46.64;153158.81;1677025;84;20173;-66
2022/09/03 00:03:38;;;;;;;;;;;;;;;21.90;46.45;153160.09;1620378;87;20338;-67
2022/09/03 00:06:16;;;;;;;;;;;;;;;21.90;47.89;153160.09;1655961;85;20183;-69
2022/09/03 00:08:49;;;;;;;;;;;;;;;21.93;48.18;153167.94;1634900;87;21149;-69
2022/09/03 00:11:19;;;;;;;;;;;;;;;21.89;47.13;153158.81;1634489;86;20192;-69
2022/09/03 00:13:55;;;;;;;;;;;;;;;21.85;47.25;153147.03;1633955;87;20204;-70
2022/09/03 00:16:23;;;;;;;;;;;;;;;21.85;49.22;153147.03;1617565;88;20531;-70
2022/09/03 00:18:54;;;;;;;;;;;;;;;21.88;50.43;153154.88;1694050;84;20185;-69
2022/09/03 00:21:40;;;;;;;;;;;;;;;21.85;49.99;153147.03;1693726;84;21262;-66
2022/09/03 00:24:09;;;;;;;;;;;;;;;21.77;50.41;153126.08;1693741;83;20235;-66
2022/09/03 00:26:36;;;;;;;;;;;;;;;21.77;49.91;153126.08;1693830;84;20477;-67
2022/09/03 00:29:14;;;;;;;;;;;;;;;21.74;49.76;153119.58;1693837;84;20179;-67
2022/09/03 00:31:56;;;;;;;;;;;;;;;21.65;50.17;153097.34;1694319;84;20637;-66
2022/09/03 00:34:29;;;;;;;;;;;;;;;21.65;50.17;153097.34;1692578;84;21450;-66
2022/09/03 00:36:56;;;;;;;;;;;;;;;21.60;50.40;153084.23;1694010;84;20175;-69
2022/09/03 00:39:25;;;;;;;;;;;;;;;21.63;49.76;153092.06;1693701;83;20504;-69
2022/09/03 00:41:56;;;;;;;;;;;;;;;21.60;49.95;153084.23;1694200;83;20179;-68
2022/09/03 00:44:59;;;;;;;;;;;;;;;21.49;50.17;153055.45;1693826;84;20134;-70
2022/09/03 00:47:39;;;;;;;;;;;;;;;21.42;50.22;153039.78;1693853;83;21220;-66
2022/09/03 00:50:19;;;;;;;;;;;;;;;21.41;49.10;153037.16;1693615;84;20959;-66
2022/09/03 00:53:13;;;;;;;;;;;;;;;21.40;49.11;153034.55;1682782;84;20198;-66
2022/09/03 00:56:05;;;;;;;;;;;;;;;21.43;48.46;153042.39;1693683;84;20197;-67
2022/09/03 00:58:57;;;;;;;;;;;;;;;21.45;48.50;153047.61;1693705;84;20179;-66
2022/09/03 01:01:32;;;;;;;;;;;;;;;21.40;47.84;153034.55;1693852;84;20556;-66
2022/09/03 01:04:20;;;;;;;;;;;;;;;21.37;48.71;153026.72;1612608;84;20182;-66
2022/09/03 01:06:52;;;;;;;;;;;;;;;21.28;47.89;153004.50;1698730;83;20480;-65
2022/09/03 01:09:32;;;;;;;;;;;;;;;21.27;49.11;153001.88;1682271;83;20173;-65
2022/09/03 01:12:15;;;;;;;;;;;;;;;21.33;49.04;153017.55;1671204;86;20218;-69
2022/09/03 01:15:00;;;;;;;;;;;;;;;21.35;49.72;153021.50;1688488;85;21255;-70
2022/09/03 01:17:58;;;;;;;;;;;;;;;21.38;50.38;153028.00;1688277;85;20152;-69
2022/09/03 01:20:28;;;;;;;;;;;;;;;21.44;50.16;153045.00;1688010;84;20187;-69
2022/09/03 01:23:01;;;;;;;;;;;;;;;21.46;48.87;153050.22;1688375;85;20218;-70
2022/09/03 01:25:47;;;;;;;;;;;;;;;21.45;49.64;153047.61;1707807;84;20163;-69
2022/09/03 01:28:31;;;;;;;;;;;;;;;21.44;48.77;153045.00;1707724;84;21149;-69
2022/09/03 01:30:59;;;;;;;;;;;;;;;21.49;49.09;153055.45;1707854;84;20206;-69
2022/09/03 01:33:30;;;;;;;;;;;;;;;21.47;49.26;153052.83;1697647;84;20202;-70
2022/09/03 01:36:24;;;;;;;;;;;;;;;21.43;48.69;153041.06;1708012;84;20928;-69
2022/09/03 01:39:09;;;;;;;;;;;;;;;21.38;49.91;153029.33;1707862;84;20208;-68
2022/09/03 01:44:47;;;;;;;;;;;;;;;21.39;49.29;153030.61;1707851;84;20462;-68
2022/09/03 01:47:35;;;;;;;;;;;;;;;21.25;48.19;152996.66;1707590;84;20207;-69
2022/09/03 01:50:19;;;;;;;;;;;;;;;21.16;48.54;152974.42;1681247;84;39781;-69
2022/09/03 01:53:06;;;;;;;;;;;;;;;21.17;49.17;152977.05;1708086;84;20194;-69
2022/09/03 01:55:55;;;;;;;;;;;;;;;21.27;49.64;153000.55;1708083;84;21263;-69
2022/09/03 01:59:00;;;;;;;;;;;;;;;21.33;48.90;153016.22;1707947;83;20197;-68
2022/09/03 02:01:37;;;;;;;;;;;;;;;21.33;48.75;153016.22;1707973;84;20218;-70
2022/09/03 02:04:16;;;;;;;;;;;;;;;21.35;49.54;153020.16;1708130;84;20181;-69
2022/09/03 02:06:44;;;;;;;;;;;;;;;21.36;48.87;153024.09;1703711;84;20182;-68
2022/09/03 02:09:10;;;;;;;;;;;;;;;21.33;49.77;153016.22;1702086;84;21198;-69
2022/09/03 02:11:38;;;;;;;;;;;;;;;21.28;50.63;153003.16;1702208;84;20219;-68
2022/09/03 02:14:06;;;;;;;;;;;;;;;21.26;51.37;152997.94;1706021;84;20228;-67
2022/09/03 02:16:33;;;;;;;;;;;;;;;21.26;50.96;152999.27;1706501;84;20215;-68
2022/09/03 02:19:02;;;;;;;;;;;;;;;21.27;50.59;153000.55;1680614;84;20229;-68
2022/09/03 02:21:35;;;;;;;;;;;;;;;21.28;50.33;153003.16;1706442;84;21227;-69
2022/09/03 02:24:03;;;;;;;;;;;;;;;21.29;49.52;153005.78;1706254;84;20198;-69
2022/09/03 02:26:29;;;;;;;;;;;;;;;21.30;50.11;153008.38;1706141;84;20244;-69
2022/09/03 02:28:56;;;;;;;;;;;;;;;21.31;48.81;153011.00;1706339;84;20291;-68
2022/09/03 02:31:23;;;;;;;;;;;;;;;21.33;49.62;153016.22;1706404;84;20215;-69
2022/09/03 02:33:49;;;;;;;;;;;;;;;21.29;49.43;153005.78;1706651;84;21121;-69
2022/09/03 02:36:18;;;;;;;;;;;;;;;21.21;49.26;152984.88;1706307;84;20698;-69
2022/09/03 02:38:45;;;;;;;;;;;;;;;21.14;49.08;152969.20;1707278;84;20177;-69
2022/09/03 02:41:14;;;;;;;;;;;;;;;21.18;49.66;152978.33;1706489;84;20715;-69
2022/09/03 02:43:43;;;;;;;;;;;;;;;21.17;49.77;152977.05;1706603;84;20210;-69
2022/09/03 02:46:14;;;;;;;;;;;;;;;21.16;48.98;152974.42;1706333;84;21240;-69
2022/09/03 02:48:41;;;;;;;;;;;;;;;21.09;49.22;152956.09;1706348;84;20265;-68
2022/09/03 02:51:08;;;;;;;;;;;;;;;21.11;50.52;152961.38;1706448;84;20221;-68
2022/09/03 02:53:35;;;;;;;;;;;;;;;21.12;50.08;152963.98;1706325;84;20177;-68
2022/09/03 02:56:02;;;;;;;;;;;;;;;21.16;50.32;152974.42;1706475;84;20202;-68
2022/09/03 02:58:30;;;;;;;;;;;;;;;21.29;51.28;153005.78;1706361;84;22754;-66
2022/09/03 03:00:57;;;;;;;;;;;;;;;21.30;49.62;153008.38;1706340;84;20225;-66
2022/09/03 03:03:23;;;;;;;;;;;;;;;21.20;50.02;152983.55;1706406;84;20237;-67
2022/09/03 03:05:52;;;;;;;;;;;;;;;21.15;49.89;152971.81;1704852;84;20943;-67
2022/09/03 03:08:23;;;;;;;;;;;;;;;21.16;50.87;152974.42;1685000;84;20187;-66
2022/09/03 03:10:55;;;;;;;;;;;;;;;21.16;51.05;152973.09;1668462;86;21251;-66
2022/09/03 03:13:24;;;;;;;;;;;;;;;21.16;50.28;152974.42;1688161;84;20182;-66
2022/09/03 03:15:51;;;;;;;;;;;;;;;21.21;51.11;152984.88;1702571;84;20841;-66
2022/09/03 03:18:19;;;;;;;;;;;;;;;21.17;50.66;152977.05;1702022;84;20195;-66
2022/09/03 03:20:47;;;;;;;;;;;;;;;21.17;51.56;152977.05;1701987;84;20173;-66
2022/09/03 03:23:14;;;;;;;;;;;;;;;21.22;51.81;152987.48;1702163;84;21883;-66
2022/09/03 03:25:40;;;;;;;;;;;;;;;21.18;50.18;152978.33;1702027;84;20182;-66
2022/09/03 03:28:07;;;;;;;;;;;;;;;21.16;50.82;152974.42;1702155;84;20213;-66
2022/09/03 03:30:37;;;;;;;;;;;;;;;21.11;51.34;152961.38;1701998;84;20162;-65
2022/09/03 03:33:04;;;;;;;;;;;;;;;21.07;51.34;152950.88;1702453;84;20202;-69
2022/09/03 03:35:30;;;;;;;;;;;;;;;21.06;51.38;152946.98;1702000;84;21126;-68
2022/09/03 03:37:58;;;;;;;;;;;;;;;21.03;51.50;152941.75;1702036;84;20170;-68
2022/09/03 03:40:24;;;;;;;;;;;;;;;21.03;52.37;152941.75;1702015;84;20174;-68
2022/09/03 03:42:52;;;;;;;;;;;;;;;21.10;52.94;152958.70;1702044;84;20183;-68
2022/09/03 03:45:19;;;;;;;;;;;;;;;21.12;52.15;152963.98;1702131;84;20250;-69
2022/09/03 03:47:46;;;;;;;;;;;;;;;21.06;51.72;152948.27;1702053;84;22230;-69
2022/09/03 03:50:12;;;;;;;;;;;;;;;21.02;54.04;152937.81;1701885;84;20241;-69
2022/09/03 03:52:39;;;;;;;;;;;;;;;21.00;52.84;152933.92;1702079;84;20174;-69
2022/09/03 03:55:07;;;;;;;;;;;;;;;21.00;53.29;152932.59;1702098;84;20233;-69
2022/09/03 03:57:35;;;;;;;;;;;;;;;20.99;53.40;152931.27;1702155;84;20179;-69
2022/09/03 04:00:01;;;;;;;;;;;;;;;20.97;53.62;152924.75;1702010;84;21262;-68
2022/09/03 04:02:31;;;;;;;;;;;;;;;20.94;53.79;152918.20;1698081;84;20202;-68
2022/09/03 04:04:57;;;;;;;;;;;;;;;20.91;52.16;152909.09;1702123;84;20187;-68
2022/09/03 04:07:25;;;;;;;;;;;;;;;20.85;52.90;152895.98;1702016;83;20230;-69
2022/09/03 04:09:52;;;;;;;;;;;;;;;20.78;53.83;152877.66;1676185;84;20479;-68
2022/09/03 04:12:19;;;;;;;;;;;;;;;20.78;53.83;152877.66;1702016;83;21251;-69
2022/09/03 04:14:46;;;;;;;;;;;;;;;20.77;53.30;152875.05;1702008;84;20198;-68
2022/09/03 04:17:13;;;;;;;;;;;;;;;20.81;53.35;152884.27;1701957;84;20171;-70
2022/09/03 04:19:40;;;;;;;;;;;;;;;20.84;53.19;152893.38;1702120;84;20473;-68
2022/09/03 04:22:07;;;;;;;;;;;;;;;20.85;53.56;152895.98;1702164;84;20245;-69
2022/09/03 04:24:35;;;;;;;;;;;;;;;20.85;53.74;152895.98;1702217;84;21261;-69
2022/09/03 04:27:03;;;;;;;;;;;;;;;20.86;53.50;152898.59;1702016;84;20565;-69
2022/09/03 04:29:30;;;;;;;;;;;;;;;20.80;52.56;152882.94;1702033;84;20431;-69
2022/09/03 04:34:42;;;;;;;;;;;;;;;20.80;53.82;152882.94;1701991;84;20201;-68
2022/09/03 04:37:10;;;;;;;;;;;;;;;20.71;52.44;152860.66;1701903;84;21184;-66
2022/09/03 04:39:37;;;;;;;;;;;;;;;20.65;53.57;152843.67;1676732;84;20198;-66
2022/09/03 04:42:04;;;;;;;;;;;;;;;20.63;53.61;152838.44;1701562;84;20198;-65
2022/09/03 04:44:31;;;;;;;;;;;;;;;20.64;53.34;152841.06;1701814;84;20217;-65
2022/09/03 04:46:58;;;;;;;;;;;;;;;20.70;53.11;152858.06;1701950;84;20198;-70
2022/09/03 04:49:25;;;;;;;;;;;;;;;20.72;53.43;152862.00;1702237;84;21276;-69
2022/09/03 04:51:51;;;;;;;;;;;;;;;20.74;53.09;152867.22;1702026;84;20217;-68
2022/09/03 04:54:18;;;;;;;;;;;;;;;20.68;51.43;152851.55;1701887;84;20971;-69
2022/09/03 04:56:45;;;;;;;;;;;;;;;20.61;51.71;152834.56;1701923;84;20463;-70
2022/09/03 04:59:12;;;;;;;;;;;;;;;20.53;52.63;152813.63;1701970;84;20186;-69
2022/09/03 05:01:39;;;;;;;;;;;;;;;20.49;53.55;152804.50;1702096;84;21140;-67
2022/09/03 05:04:06;;;;;;;;;;;;;;;20.45;54.51;152794.06;1701895;84;20206;-67
2022/09/03 05:06:33;;;;;;;;;;;;;;;20.44;54.07;152791.41;1701960;84;20150;-65
2022/09/03 05:09:00;;;;;;;;;;;;;;;20.50;53.04;152807.13;1702159;84;20190;-66
2022/09/03 05:11:27;;;;;;;;;;;;;;;20.50;52.32;152807.13;1701953;84;20202;-65
2022/09/03 05:13:56;;;;;;;;;;;;;;;20.50;53.49;152807.13;1706651;84;20182;-69
2022/09/03 05:16:23;;;;;;;;;;;;;;;20.50;53.13;152807.13;1707563;84;20438;-68
2022/09/03 05:18:54;;;;;;;;;;;;;;;20.49;53.24;152804.50;1707967;84;20466;-69
2022/09/03 05:21:21;;;;;;;;;;;;;;;20.44;53.14;152791.41;1707614;84;20717;-68
2022/09/03 05:23:49;;;;;;;;;;;;;;;20.40;53.66;152782.30;1707473;84;20230;-71
2022/09/03 05:26:18;;;;;;;;;;;;;;;20.36;52.46;152770.53;1707783;84;21961;-70
2022/09/03 05:28:45;;;;;;;;;;;;;;;20.30;53.33;152756.14;1708220;84;20447;-68
2022/09/03 05:31:16;;;;;;;;;;;;;;;20.31;54.61;152760.09;1707758;84;20627;-68
2022/09/03 05:33:44;;;;;;;;;;;;;;;20.38;55.01;152777.08;1708121;84;20198;-69
2022/09/03 05:36:13;;;;;;;;;;;;;;;20.40;53.19;152782.30;1707723;84;20202;-68
2022/09/03 05:38:40;;;;;;;;;;;;;;;20.42;53.11;152786.19;1707862;84;21155;-70
2022/09/03 05:41:08;;;;;;;;;;;;;;;20.41;53.47;152784.91;1676260;84;20178;-69
2022/09/03 05:43:35;;;;;;;;;;;;;;;20.40;52.72;152782.30;1708145;84;20459;-67
2022/09/03 05:46:03;;;;;;;;;;;;;;;20.39;53.15;152779.69;1708176;84;20714;-66
2022/09/03 05:48:30;;;;;;;;;;;;;;;20.39;52.82;152779.69;1707788;84;20206;-66
2022/09/03 05:51:08;;;;;;;;;;;;;;;20.36;53.28;152770.53;1707769;84;21819;-66
2022/09/03 05:53:37;;;;;;;;;;;;;;;20.39;53.02;152778.36;1707745;84;20151;-67
2022/09/03 05:56:13;;;;;;;;;;;;;;;20.41;53.02;152783.58;1708319;84;20144;-66
2022/09/03 05:58:43;;;;;;;;;;;;;;;20.39;53.81;152779.69;1707802;84;20455;-66
2022/09/03 06:01:27;;;;;;;;;;;;;;;20.38;53.52;152775.75;1708039;84;20174;-67
2022/09/03 06:03:59;;;;;;;;;;;;;;;20.40;53.45;152782.30;1707912;84;21294;-66
2022/09/03 06:06:26;;;;;;;;;;;;;;;20.42;53.93;152786.19;1707532;84;20206;-67
2022/09/03 06:08:57;;;;;;;;;;;;;;;20.45;52.78;152794.06;1704965;84;20178;-66
2022/09/03 06:11:29;;;;;;;;;;;;;;;20.50;54.11;152807.13;1698793;84;20731;-67
2022/09/03 06:13:57;;;;;;;;;;;;;;;20.52;53.27;152812.34;1694970;84;20175;-67
2022/09/03 06:16:24;;;;;;;;;;;;;;;20.51;53.08;152809.73;1693808;84;21224;-66
2022/09/03 06:18:52;;;;;;;;;;;;;;;20.53;52.98;152813.63;1694203;84;20194;-67
2022/09/03 06:21:19;;;;;;;;;;;;;;;20.54;52.73;152817.56;1693863;84;20198;-67
2022/09/03 06:23:52;;;;;;;;;;;;;;;20.56;51.94;152821.50;1694001;84;20226;-67
2022/09/03 06:26:19;;;;;;;;;;;;;;;20.51;51.73;152809.73;1693764;84;20257;-67
2022/09/03 06:28:47;;;;;;;;;;;;;;;20.45;51.99;152795.34;1693961;84;20729;-67
2022/09/03 06:31:16;;;;;;;;;;;;;;;20.45;52.71;152794.06;1694074;84;20206;-66
2022/09/03 06:33:43;;;;;;;;;;;;;;;20.52;52.15;152812.34;1693653;84;20140;-66
2022/09/03 06:36:14;;;;;;;;;;;;;;;20.55;51.91;152818.84;1693975;84;20199;-67
2022/09/03 06:38:41;;;;;;;;;;;;;;;20.56;50.73;152822.78;1693951;84;20172;-67
2022/09/03 06:41:09;;;;;;;;;;;;;;;20.58;50.69;152826.72;1693926;83;21196;-67
2022/09/03 06:43:37;;;;;;;;;;;;;;;20.59;50.53;152830.63;1693715;84;20433;-66
2022/09/03 06:46:15;;;;;;;;;;;;;;;20.61;51.09;152835.84;1694042;84;20190;-67
2022/09/03 06:48:42;;;;;;;;;;;;;;;20.65;51.33;152845.00;1694517;84;20139;-67
2022/09/03 06:51:11;;;;;;;;;;;;;;;20.64;50.48;152841.06;1693818;84;20174;-67
2022/09/03 06:53:39;;;;;;;;;;;;;;;20.58;50.30;152828.00;1693737;84;21156;-67
2022/09/03 06:56:09;;;;;;;;;;;;;;;20.55;50.01;152818.84;1694101;83;20256;-68
2022/09/03 06:58:42;;;;;;;;;;;;;;;20.56;49.46;152822.78;1693895;83;20336;-67
2022/09/03 07:01:08;;;;;;;;;;;;;;;20.60;50.06;152831.94;1693859;84;20642;-68
2022/09/03 07:03:36;;;;;;;;;;;;;;;20.72;49.02;152862.00;1693729;84;20143;-67
2022/09/03 07:06:04;;;;;;;;;;;;;;;20.75;48.72;152871.11;1696301;83;21304;-67
2022/09/03 07:08:32;;;;;;;;;;;;;;;20.86;48.87;152898.59;1699059;84;20271;-66
2022/09/03 07:11:07;;;;;;;;;;;;;;;20.95;47.83;152919.53;1699446;84;20178;-66
2022/09/03 07:13:32;;;;;;;;;;;;;;;20.99;48.20;152931.27;1677368;84;20181;-67
2022/09/03 07:16:02;;;;;;;;;;;;;;;21.15;47.75;152971.81;1665736;85;20232;-67
2022/09/03 07:18:30;;;;;;;;;;;;;;;21.27;47.98;153000.55;1664775;86;21441;-67
2022/09/03 07:21:00;;;;;;;;;;;;;;;21.40;47.06;153033.22;1665649;85;20481;-67
2022/09/03 07:23:28;;;;;;;;;;;;;;;21.43;47.01;153042.39;1664375;86;20172;-67
2022/09/03 07:25:57;;;;;;;;;;;;;;;21.43;46.44;153041.06;1665731;85;20153;-67
2022/09/03 07:28:25;;;;;;;;;;;;;;;21.41;46.62;153037.16;1664970;86;20196;-66
2022/09/03 07:30:52;;;;;;;;;;;;;;;21.41;46.22;153035.83;1665664;85;21089;-66
2022/09/03 07:33:18;;;;;;;;;;;;;;;21.40;46.35;153034.55;1665351;85;20468;-71
2022/09/03 07:35:45;;;;;;;;;;;;;;;21.34;46.33;153018.88;1665499;85;20196;-71
2022/09/03 07:38:22;;;;;;;;;;;;;;;21.37;46.16;153026.72;1665555;85;20458;-71
2022/09/03 07:40:53;;;;;;;;;;;;;;;21.35;45.94;153020.16;1665758;85;20694;-70
2022/09/03 07:43:20;;;;;;;;;;;;;;;21.36;45.52;153024.09;1664775;85;21349;-70
2022/09/03 07:45:49;;;;;;;;;;;;;;;21.34;45.30;153018.88;1665735;85;20220;-70
2022/09/03 07:48:16;;;;;;;;;;;;;;;21.32;45.68;153013.61;1665311;86;20186;-67
2022/09/03 07:50:43;;;;;;;;;;;;;;;21.47;45.56;153052.83;1665407;85;20150;-67
2022/09/03 07:53:10;;;;;;;;;;;;;;;21.60;44.86;153085.52;1665173;85;20217;-67
2022/09/03 07:55:37;;;;;;;;;;;;;;;21.67;44.41;153101.28;1665208;85;21047;-66
2022/09/03 07:58:04;;;;;;;;;;;;;;;21.72;44.46;153115.63;1665080;86;20201;-66
2022/09/03 08:00:32;;;;;;;;;;;;;;;21.85;43.90;153147.03;1665081;85;20492;-67
2022/09/03 08:03:07;;;;;;;;;;;;;;;21.94;43.95;153169.27;1665580;86;20181;-66
2022/09/03 08:05:28;;;;;;;;;;;;;;;22.06;43.81;153199.34;1668713;84;20198;-66
2022/09/03 08:07:55;;;;;;;;;;;;;;;22.09;43.26;153207.19;1677718;84;21255;-66
2022/09/03 08:10:23;;;;;;;;;;;;;;;22.14;43.29;153220.25;1693647;83;20523;-66
2022/09/03 08:12:50;;;;;;;;;;;;;;;22.18;42.30;153230.69;1674809;85;20183;-65
2022/09/03 08:15:17;;;;;;;;;;;;;;;22.16;41.24;153225.47;1681808;84;20889;-66
2022/09/03 08:17:44;;;;;;;;;;;;;;;22.08;41.62;153204.56;1681975;85;20165;-66
2022/09/03 08:20:12;;;;;;;;;;;;;;;22.03;41.67;153192.78;1681894;85;21204;-66
2022/09/03 08:22:39;;;;;;;;;;;;;;;21.97;41.75;153178.39;1681806;85;20150;-66
2022/09/03 08:25:06;;;;;;;;;;;;;;;21.98;42.23;153181.00;1681768;85;20688;-66
2022/09/03 08:27:34;;;;;;;;;;;;;;;22.03;40.98;153194.11;1681738;85;20659;-66
2022/09/03 08:30:03;;;;;;;;;;;;;;;22.00;40.75;153186.28;1682340;84;20163;-66
2022/09/03 08:32:30;;;;;;;;;;;;;;;22.01;40.97;153187.56;1681793;85;21254;-65
2022/09/03 08:34:57;;;;;;;;;;;;;;;22.14;41.55;153220.25;1682072;85;20503;-67
2022/09/03 08:37:26;;;;;;;;;;;;;;;22.28;40.62;153256.87;1681826;84;20200;-67
2022/09/03 08:39:52;;;;;;;;;;;;;;;22.32;39.51;153266.00;1681823;85;20206;-66
2022/09/03 08:42:25;;;;;;;;;;;;;;;22.26;39.83;153251.66;1681844;85;20190;-66
2022/09/03 08:44:57;;;;;;;;;;;;;;;22.24;40.33;153246.44;1681846;85;21273;-66
2022/09/03 08:47:40;;;;;;;;;;;;;;;22.38;40.49;153280.41;1682030;84;20520;-66
2022/09/03 08:50:18;;;;;;;;;;;;;;;22.56;40.02;153327.55;1682155;85;20202;-66
2022/09/03 08:52:53;;;;;;;;;;;;;;;22.63;38.93;153343.23;1682247;84;20909;-66
2022/09/03 08:55:29;;;;;;;;;;;;;;;22.56;38.32;153327.55;1681773;85;20198;-65
2022/09/03 08:58:05;;;;;;;;;;;;;;;22.45;38.81;153298.75;1681928;85;21255;-66
2022/09/03 09:00:53;;;;;;;;;;;;;;;22.43;39.30;153293.47;1681700;85;20195;-66
2022/09/03 09:03:52;;;;;;;;;;;;;;;22.48;38.62;153305.31;1681926;84;20653;-66
2022/09/03 09:06:58;;;;;;;;;;;;;;;22.50;38.61;153311.88;1685210;85;20620;-66
2022/09/03 09:09:47;;;;;;;;;;;;;;;22.59;38.46;153334.11;1572906;90;20203;-65
2022/09/03 09:12:40;;;;;;;;;;;;;;;22.70;37.98;153361.58;1624340;87;20225;-66
2022/09/03 09:15:11;;;;;;;;;;;;;;;22.68;37.65;153356.34;1684357;83;20229;-67
2022/09/03 09:17:50;;;;;;;;;;;;;;;22.67;37.81;153355.02;1712159;83;20189;-66
2022/09/03 09:20:23;;;;;;;;;;;;;;;22.70;38.05;153361.58;1712195;83;20189;-66
2022/09/03 09:22:55;;;;;;;;;;;;;;;22.75;37.45;153374.66;1712315;83;20190;-67
2022/09/03 09:25:23;;;;;;;;;;;;;;;22.63;37.70;153343.23;1712192;83;21148;-67
2022/09/03 09:28:01;;;;;;;;;;;;;;;22.52;37.81;153315.77;1712217;83;20158;-66
2022/09/03 09:30:28;;;;;;;;;;;;;;;22.48;38.10;153306.64;1712424;83;20137;-66
2022/09/03 09:32:55;;;;;;;;;;;;;;;22.40;37.79;153285.62;1712610;83;20174;-67
2022/09/03 09:35:22;;;;;;;;;;;;;;;22.29;37.59;153259.50;1712070;83;20202;-67
2022/09/03 09:37:53;;;;;;;;;;;;;;;22.20;38.06;153235.92;1712212;83;21137;-69
2022/09/03 09:40:34;;;;;;;;;;;;;;;22.14;38.17;153220.25;1712110;83;20251;-69
2022/09/03 09:43:09;;;;;;;;;;;;;;;22.14;38.62;153220.25;1712246;83;20247;-69
2022/09/03 09:45:39;;;;;;;;;;;;;;;22.09;37.90;153207.19;1712199;83;20409;-69
2022/09/03 09:48:13;;;;;;;;;;;;;;;21.98;37.81;153179.72;1712441;83;20979;-70
2022/09/03 09:50:39;;;;;;;;;;;;;;;21.86;38.24;153149.66;1704808;83;21251;-66
2022/09/03 09:53:13;;;;;;;;;;;;;;;21.82;38.28;153139.19;1712037;83;20166;-69
2022/09/03 09:55:40;;;;;;;;;;;;;;;21.75;38.17;153122.19;1711504;83;20248;-66
2022/09/03 09:58:08;;;;;;;;;;;;;;;21.65;38.88;153097.34;1685987;83;20188;-69
2022/09/03 10:00:36;;;;;;;;;;;;;;;21.64;39.77;153093.34;1712226;83;20221;-66
2022/09/03 10:03:09;;;;;;;;;;;;;;;21.59;41.07;153081.63;1712077;83;21246;-66
2022/09/03 10:05:38;;;;;;;;;;;;;;;21.39;42.07;153031.94;1673271;85;20209;-70
2022/09/03 10:08:08;;;;;;;;;;;;;;;21.15;42.37;152971.81;1712192;83;20192;-68
2022/09/03 10:10:37;;;;;;;;;;;;;;;20.89;42.87;152906.48;1707187;83;20202;-69
2022/09/03 10:13:14;;;;;;;;;;;;;;;20.74;43.49;152867.22;1689825;84;20205;-69
2022/09/03 10:16:02;;;;;;;;;;;;;;;20.69;43.25;152854.16;1677731;84;21268;-69
2022/09/03 10:18:44;;;;;;;;;;;;;;;20.63;43.77;152838.44;1670571;86;20180;-66
2022/09/03 10:21:15;;;;;;;;;;;;;;;20.59;43.77;152829.34;1678109;85;20627;-66
2022/09/03 10:23:57;;;;;;;;;;;;;;;20.54;44.25;152816.23;1671005;85;20414;-66
2022/09/03 10:26:33;;;;;;;;;;;;;;;20.50;43.89;152807.13;1670813;86;20224;-66
2022/09/03 10:28:52;;;;;;;;;;;;;;;20.49;44.30;152804.50;1675029;85;21820;-66
2022/09/03 10:31:41;;;;;;;;;;;;;;;20.51;43.90;152809.73;1644395;86;20197;-66
2022/09/03 10:34:17;;;;;;;;;;;;;;;20.60;43.83;152833.22;1677764;85;20239;-67
2022/09/03 10:36:47;;;;;;;;;;;;;;;20.68;43.94;152852.83;1671008;86;21112;-65
2022/09/03 10:39:21;;;;;;;;;;;;;;;20.76;43.50;152872.44;1678135;85;20468;-67
2022/09/03 10:41:54;;;;;;;;;;;;;;;20.82;43.38;152886.88;1671124;84;21972;-66
2022/09/03 10:44:46;;;;;;;;;;;;;;;20.85;43.40;152895.98;1676980;85;20208;-69
2022/09/03 10:47:36;;;;;;;;;;;;;;;20.89;43.34;152906.48;1671266;86;20296;-69
2022/09/03 10:50:23;;;;;;;;;;;;;;;20.96;42.30;152923.44;1678200;84;20667;-69
2022/09/03 10:53:08;;;;;;;;;;;;;;;21.08;42.91;152952.20;1671126;86;20157;-66
2022/09/03 10:55:47;;;;;;;;;;;;;;;21.14;43.04;152969.20;1677591;85;21900;-67
2022/09/03 10:58:30;;;;;;;;;;;;;;;21.18;42.25;152979.66;1671089;86;20188;-69
2022/09/03 11:01:06;;;;;;;;;;;;;;;21.28;41.98;153003.16;1677948;84;20180;-70
2022/09/03 11:03:45;;;;;;;;;;;;;;;21.40;41.00;153034.55;1670455;84;20205;-70
2022/09/03 11:06:18;;;;;;;;;;;;;;;21.43;41.22;153042.39;1698585;83;20212;-66
2022/09/03 11:08:58;;;;;;;;;;;;;;;21.44;40.41;153043.67;1712569;82;21235;-67
2022/09/03 11:11:33;;;;;;;;;;;;;;;21.43;40.06;153042.39;1696879;83;20166;-66
2022/09/03 11:14:03;;;;;;;;;;;;;;;21.43;40.15;153041.06;1705026;84;20174;-69
2022/09/03 11:16:34;;;;;;;;;;;;;;;21.47;40.06;153051.55;1703740;84;20182;-69
2022/09/03 11:19:06;;;;;;;;;;;;;;;21.55;39.71;153071.13;1703832;84;20182;-69
2022/09/03 11:21:33;;;;;;;;;;;;;;;21.55;39.19;153071.13;1704181;84;21116;-66
2022/09/03 11:24:16;;;;;;;;;;;;;;;21.57;39.03;153077.67;1704244;84;20198;-65
2022/09/03 11:26:43;;;;;;;;;;;;;;;21.61;39.07;153086.84;1703789;84;20423;-66
2022/09/03 11:29:19;;;;;;;;;;;;;;;21.64;39.42;153094.69;1704172;84;20463;-66
2022/09/03 11:32:06;;;;;;;;;;;;;;;21.75;38.62;153123.47;1703912;84;20202;-66
2022/09/03 11:34:36;;;;;;;;;;;;;;;21.78;38.39;153130.03;1703753;84;21380;-70
2022/09/03 11:37:06;;;;;;;;;;;;;;;21.75;38.41;153123.47;1701276;84;20177;-70
2022/09/03 11:39:35;;;;;;;;;;;;;;;21.75;38.20;153123.47;1702113;84;20170;-66
2022/09/03 11:42:07;;;;;;;;;;;;;;;21.80;38.33;153133.97;1704174;84;20202;-67
2022/09/03 11:44:39;;;;;;;;;;;;;;;21.86;38.58;153149.66;1687828;84;20230;-66
2022/09/03 11:47:15;;;;;;;;;;;;;;;21.93;38.46;153167.94;1704072;84;21167;-67
2022/09/03 11:49:49;;;;;;;;;;;;;;;21.87;37.73;153152.25;1703816;84;20178;-66
2022/09/03 11:52:31;;;;;;;;;;;;;;;21.72;39.20;153114.34;1703971;84;20178;-65
2022/09/03 11:54:57;;;;;;;;;;;;;;;21.61;40.46;153086.84;1703718;84;20237;-66
2022/09/03 11:57:31;;;;;;;;;;;;;;;21.43;41.03;153042.39;1703734;84;20225;-69
2022/09/03 12:00:12;;;;;;;;;;;;;;;21.26;42.91;152997.94;1704214;84;21250;-66
2022/09/03 12:02:44;;;;;;;;;;;;;;;20.95;43.52;152919.53;1703845;84;20143;-66
2022/09/03 12:05:27;;;;;;;;;;;;;;;20.59;44.57;152830.63;1707345;82;20122;-66
2022/09/03 12:08:03;;;;;;;;;;;;;;;20.33;45.29;152765.30;1704808;84;20539;-66
2022/09/03 12:10:50;;;;;;;;;;;;;;;20.15;46.54;152718.28;1703432;83;20167;-70
2022/09/03 12:13:45;;;;;;;;;;;;;;;20.05;46.91;152693.45;1681267;84;21316;-66
2022/09/03 12:16:24;;;;;;;;;;;;;;;19.97;46.98;152672.58;1643600;87;20187;-67
2022/09/03 12:18:54;;;;;;;;;;;;;;;19.96;46.53;152671.25;1701951;84;20182;-69
2022/09/03 12:21:21;;;;;;;;;;;;;;;19.91;46.91;152658.19;1676492;84;20426;-69
2022/09/03 12:23:49;;;;;;;;;;;;;;;19.83;47.14;152638.56;1702264;84;20146;-69
2022/09/03 12:26:18;;;;;;;;;;;;;;;19.76;47.51;152621.56;1701999;84;21240;-70
2022/09/03 12:28:47;;;;;;;;;;;;;;;19.76;47.57;152621.56;1702208;84;20183;-66
2022/09/03 12:31:28;;;;;;;;;;;;;;;19.81;47.32;152632.06;1702155;84;20475;-69
2022/09/03 12:33:58;;;;;;;;;;;;;;;19.90;46.68;152655.53;1701874;84;20460;-70
2022/09/03 12:36:25;;;;;;;;;;;;;;;19.99;45.97;152677.80;1702038;84;20316;-69
2022/09/03 12:38:52;;;;;;;;;;;;;;;20.06;45.78;152694.78;1702603;84;21356;-69
2022/09/03 12:41:23;;;;;;;;;;;;;;;20.08;45.34;152700.00;1702037;84;20489;-69
2022/09/03 12:43:57;;;;;;;;;;;;;;;20.13;45.23;152713.05;1697439;84;20222;-65
2022/09/03 12:46:25;;;;;;;;;;;;;;;20.26;45.52;152747.03;1702249;84;20770;-66
2022/09/03 12:49:04;;;;;;;;;;;;;;;20.32;45.50;152762.69;1702651;84;20194;-67
2022/09/03 12:51:34;;;;;;;;;;;;;;;20.29;46.10;152754.86;1701998;84;21734;-66
2022/09/03 12:54:00;;;;;;;;;;;;;;;20.28;46.73;152752.25;1702387;84;20209;-69
2022/09/03 12:56:33;;;;;;;;;;;;;;;20.22;47.23;152736.55;1701912;84;20186;-68
2022/09/03 12:58:58;;;;;;;;;;;;;;;20.17;48.77;152723.50;1701092;84;21027;-70
2022/09/03 13:01:30;;;;;;;;;;;;;;;20.00;49.87;152681.69;1701409;84;20226;-69
2022/09/03 13:04:11;;;;;;;;;;;;;;;19.88;51.40;152650.31;1702632;84;21246;-70
2022/09/03 13:06:50;;;;;;;;;;;;;;;19.73;52.37;152613.73;1701212;84;20226;-69